Leander, TX (78641)

5:50 AM CDT on July 31, 2016 (GMT -0500)
Westwood | | Change Station

Elev 1053 ft 30.57 °N, 97.88 °W | Updated 249 days ago

Clear
Clear
78 °F
Feels Like 78 °F
N
8
Wind Variable Wind from SSW
Gusts 13 mph

Today
High -- | Low -- °F
--% Chance of Precip.
Yesterday
High -- | Low -- °F
Precip. -- in
Pressure 30.02 in
Visibility 10.0 miles
Clouds Overcast 1100 ft
Dew Point 74 °F
Humidity 87%
Rainfall in
Snow Depth Not available.
6:49 AM 8:26 PM
Waning Crescent, 7% visible
METAR KRYW 311035Z AUTO 20008G15KT 10SM OVC011 25/23 A3002 RMK AO2 T02500226
Pressure 30.02 in
Visibility 10.0 miles
Clouds Overcast 1100 ft
Dew Point 74 °F
Humidity 87%
Rainfall in
Snow Depth Not available.
6:49 AM 8:26 PM
Waning Crescent, 7% visible
METAR KRYW 311035Z AUTO 20008G15KT 10SM OVC011 25/23 A3002 RMK AO2 T02500226

10-Day Weather Forecast

Almanac

Astronomy

Jul. 31, 2016 Rise Set
Actual Time
Civil Twilight
Nautical Twilight
Astronomical Twilight
Moon
Length of Visible Light
Length of Day
Tomorrow will be .
, % of the Moon is Illuminated

Today's Extremes

State Highs State Lows

Community

WunderPhotos

Upload Photos

1,928,785 photos uploaded!

WunderBlog® & News

Nearby

Air Quality

  Air Quality AQ Index Pollutant
Not available.

Snow Depth

Station Depth Elevation

Earthquake Activity

City Distance Mag. Time & Date
Minimum magnitude displayed is 2.5.

Coastal Water Temperatures

Place Temperature

Stations

Nearby Weather Stations

Station Location Temp. Windchill Dew Point Humidity Wind Precip. Elev Updated Type
                   

Watches & Warnings

There are currently no watches in effect.